createdAt,value
2022-12-05T00:21:54.515Z,1017.52
2022-12-05T00:50:51.638Z,1017.52
2022-12-05T01:19:48.831Z,1017.61
2022-12-05T01:48:40.357Z,1017.88
2022-12-05T02:16:55.579Z,1018.17
2022-12-05T02:45:41.939Z,1018.21
2022-12-05T03:14:32.078Z,1018.08
2022-12-05T03:42:42.233Z,1017.88
2022-12-05T04:11:01.715Z,1018.21
2022-12-05T04:39:19.778Z,1018.3
2022-12-05T05:07:31.276Z,1018.57
2022-12-05T05:36:19.023Z,1018.74
2022-12-05T06:05:20.686Z,1019
2022-12-05T06:34:11.971Z,1019.49
2022-12-05T07:02:49.227Z,1019.7
2022-12-05T07:31:36.409Z,1019.96
2022-12-05T08:00:30.376Z,1020.1
2022-12-05T08:29:23.443Z,1020.38
2022-12-05T08:58:28.630Z,1020.68
2022-12-05T09:27:43.259Z,1020.97
2022-12-05T09:56:23.776Z,1021.14
2022-12-05T10:25:17.900Z,1020.98
2022-12-05T10:54:15.078Z,1020.95
2022-12-05T11:23:11.836Z,1020.98
2022-12-05T11:52:17.993Z,1020.84
2022-12-05T12:21:04.429Z,1020.84
2022-12-05T12:50:00.460Z,1020.85
2022-12-05T13:18:52.531Z,1020.81
2022-12-05T13:47:50.967Z,1020.75
2022-12-05T14:16:53.520Z,1020.7
2022-12-05T14:45:58.965Z,1020.85
2022-12-05T15:14:44.574Z,1021
2022-12-05T15:43:40.845Z,1021.04
2022-12-05T16:12:32.646Z,1021.24
2022-12-05T16:41:23.767Z,1021.21
2022-12-05T17:10:14.080Z,1021.57
2022-12-05T17:39:13.517Z,1021.63
2022-12-05T18:08:09.058Z,1021.83
2022-12-05T18:37:12.760Z,1021.86
2022-12-05T19:05:58.276Z,1022
2022-12-05T19:34:46.918Z,1022.16
2022-12-05T20:03:41.157Z,1022.05
2022-12-05T20:32:39.671Z,1022.18
2022-12-05T21:01:32.561Z,1022.17
2022-12-05T21:30:23.714Z,1022.11
2022-12-05T21:59:07.853Z,1022.09
2022-12-05T22:28:01.205Z,1022.15
2022-12-05T22:56:53.958Z,1022.03
2022-12-05T23:25:53.432Z,1021.76
2022-12-05T23:54:43.880Z,1021.58
